Time;durP1;ratioP1;P1;durP2;ratioP2;P2;SDS_P1;SDS_P2;PMS_P1;PMS_P2;Temp;Humidity;BMP_temperature;BMP_pressure;BME280_temperature;BME280_humidity;BME280_pressure;Samples;Min_cycle;Max_cycle;Signal;HPM_P1;HPM_P2
2023/12/30 00:01:34;;;;;;;;;;;;;;;14.49;48.57;100358.22;5049598;28;20312;-83
2023/12/30 00:03:59;;;;;;;;;;;;;;;14.42;48.60;100367.69;5050843;28;21465;-83
2023/12/30 00:06:25;;;;;;;;;;;;;;;14.39;48.86;100365.56;5050118;28;20400;-84
2023/12/30 00:08:50;;;;;;;;;;;;;;;14.38;48.92;100383.63;5049124;28;19955;-83
2023/12/30 00:11:15;;;;;;;;;;;;;;;14.38;48.88;100399.00;5049987;28;19921;-83
2023/12/30 00:13:40;;;;;;;;;;;;;;;14.41;48.95;100399.25;5050600;28;21123;-83
2023/12/30 00:16:06;;;;;;;;;;;;;;;14.43;48.86;100402.47;5051087;28;19999;-82
2023/12/30 00:18:31;;;;;;;;;;;;;;;14.45;48.84;100405.69;5048455;28;19994;-83
2023/12/30 00:20:57;;;;;;;;;;;;;;;14.47;48.90;100402.72;5048279;28;20396;-83
2023/12/30 00:23:22;;;;;;;;;;;;;;;14.47;48.78;100403.53;5049011;28;19982;-83
2023/12/30 00:25:47;;;;;;;;;;;;;;;14.47;48.98;100410.81;5047707;28;19925;-83
2023/12/30 00:28:13;;;;;;;;;;;;;;;14.48;48.95;100413.22;5048613;28;20605;-83
2023/12/30 00:30:38;;;;;;;;;;;;;;;14.47;48.76;100413.50;5048272;28;19924;-84
2023/12/30 00:33:03;;;;;;;;;;;;;;;14.43;48.81;100413.25;5049137;28;19929;-83
2023/12/30 00:35:29;;;;;;;;;;;;;;;14.41;48.60;100428.09;5049413;28;19931;-83
2023/12/30 00:37:54;;;;;;;;;;;;;;;14.38;48.84;100420.56;5050310;28;19917;-83
2023/12/30 00:40:19;;;;;;;;;;;;;;;14.37;48.84;100416.25;5051613;28;20445;-83
2023/12/30 00:42:45;;;;;;;;;;;;;;;14.33;48.77;100417.88;5048747;28;20011;-83
2023/12/30 00:45:10;;;;;;;;;;;;;;;14.29;48.60;100412.25;5048950;28;19924;-83
2023/12/30 00:47:35;;;;;;;;;;;;;;;14.28;48.72;100417.94;5049119;28;19924;-83
2023/12/30 00:50:00;;;;;;;;;;;;;;;14.26;48.70;100418.22;5049305;28;19924;-83
2023/12/30 00:52:26;;;;;;;;;;;;;;;14.24;48.71;100424.97;5049754;28;20041;-83
2023/12/30 00:54:51;;;;;;;;;;;;;;;14.19;48.47;100423.94;5047361;28;19925;-83
2023/12/30 00:57:16;;;;;;;;;;;;;;;14.10;48.75;100436.38;5049809;28;20288;-83
2023/12/30 00:59:42;;;;;;;;;;;;;;;14.01;48.83;100429.16;5049499;28;19966;-84
2023/12/30 01:02:07;;;;;;;;;;;;;;;13.93;48.84;100440.50;5048857;28;19925;-83
2023/12/30 01:04:32;;;;;;;;;;;;;;;13.87;49.01;100442.44;5049457;28;19928;-83
2023/12/30 01:06:57;;;;;;;;;;;;;;;13.85;49.08;100439.22;5049251;28;20442;-83
2023/12/30 01:09:23;;;;;;;;;;;;;;;13.89;49.07;100443.75;5047545;28;19964;-83
2023/12/30 01:11:48;;;;;;;;;;;;;;;13.82;49.13;100445.97;5048087;28;20023;-83
2023/12/30 01:14:14;;;;;;;;;;;;;;;13.79;48.99;100453.75;5049264;28;19931;-83
2023/12/30 01:16:39;;;;;;;;;;;;;;;13.73;49.43;100447.59;5050113;28;19974;-83
2023/12/30 01:19:04;;;;;;;;;;;;;;;13.76;49.06;100446.25;5048293;28;20347;-83
2023/12/30 01:21:30;;;;;;;;;;;;;;;13.73;49.33;100446.78;5048253;28;19975;-83
2023/12/30 01:23:55;;;;;;;;;;;;;;;13.72;49.48;100455.97;5048817;28;20359;-83
2023/12/30 01:26:20;;;;;;;;;;;;;;;13.71;49.32;100457.84;5049942;28;19920;-83
2023/12/30 01:28:45;;;;;;;;;;;;;;;13.64;49.41;100453.81;5046582;28;19924;-83
2023/12/30 01:31:11;;;;;;;;;;;;;;;13.65;49.64;100471.59;5048921;28;19932;-83
2023/12/30 01:33:36;;;;;;;;;;;;;;;13.65;49.58;100467.03;5049064;28;19931;-83
2023/12/30 01:36:02;;;;;;;;;;;;;;;13.59;49.50;100471.59;5047578;28;19956;-83
2023/12/30 01:38:28;;;;;;;;;;;;;;;13.56;49.69;100469.47;5050443;28;19959;-83
2023/12/30 01:40:55;;;;;;;;;;;;;;;13.59;49.72;100478.88;5046889;28;20015;-84
2023/12/30 01:43:24;;;;;;;;;;;;;;;13.60;49.57;100481.28;5049310;28;20011;-83
2023/12/30 01:45:50;;;;;;;;;;;;;;;13.60;49.53;100485.88;5047914;28;20912;-83
2023/12/30 01:48:16;;;;;;;;;;;;;;;13.64;49.27;100478.84;5047511;28;19924;-83
2023/12/30 01:50:41;;;;;;;;;;;;;;;13.57;49.12;100483.72;5048847;28;19925;-83
2023/12/30 01:53:07;;;;;;;;;;;;;;;13.49;49.68;100478.94;5048318;28;19997;-83
2023/12/30 01:55:32;;;;;;;;;;;;;;;13.50;49.46;100477.84;5048995;28;20361;-83
2023/12/30 01:57:57;;;;;;;;;;;;;;;13.47;49.47;100471.13;5051871;28;19925;-84
2023/12/30 02:00:24;;;;;;;;;;;;;;;13.48;49.57;100461.97;5051990;28;19924;-83
2023/12/30 02:02:50;;;;;;;;;;;;;;;13.45;49.55;100459.00;5052005;28;19924;-83
2023/12/30 02:05:16;;;;;;;;;;;;;;;13.44;49.65;100463.56;5052930;28;19917;-83
2023/12/30 02:07:43;;;;;;;;;;;;;;;13.45;49.51;100469.75;5052792;28;19924;-83
2023/12/30 02:10:09;;;;;;;;;;;;;;;13.43;49.63;100464.66;5050951;28;19920;-83
2023/12/30 02:12:34;;;;;;;;;;;;;;;13.41;49.61;100468.69;5051661;28;19936;-83
2023/12/30 02:15:12;;;;;;;;;;;;;;;13.38;49.52;100456.59;5051913;28;19963;-83
2023/12/30 02:17:38;;;;;;;;;;;;;;;13.37;49.30;100455.00;5048561;28;19978;-83
2023/12/30 02:20:03;;;;;;;;;;;;;;;13.30;49.64;100454.50;5050621;28;20015;-83
2023/12/30 02:22:28;;;;;;;;;;;;;;;13.26;49.50;100448.00;5051667;28;19924;-83
2023/12/30 02:24:59;;;;;;;;;;;;;;;13.26;49.58;100454.19;5053246;28;19924;-84
2023/12/30 02:27:24;;;;;;;;;;;;;;;13.30;49.29;100459.88;5084857;27;19936;-83
2023/12/30 02:29:50;;;;;;;;;;;;;;;13.28;49.29;100472.75;5051929;28;19920;-83
2023/12/30 02:32:15;;;;;;;;;;;;;;;13.20;49.59;100478.72;5051845;28;19932;-84
2023/12/30 02:34:40;;;;;;;;;;;;;;;13.19;49.49;100485.97;5054142;28;19925;-84
2023/12/30 02:37:05;;;;;;;;;;;;;;;13.15;49.40;100490.25;5049787;28;19913;-83
2023/12/30 02:39:31;;;;;;;;;;;;;;;13.14;49.48;100491.34;5051408;28;20033;-83
2023/12/30 02:41:56;;;;;;;;;;;;;;;13.13;49.26;100491.63;5053468;28;19932;-83
2023/12/30 02:44:21;;;;;;;;;;;;;;;13.09;49.29;100490.53;5055297;28;20398;-84
2023/12/30 02:46:46;;;;;;;;;;;;;;;13.07;49.72;100489.97;5051905;28;19979;-83
2023/12/30 02:49:12;;;;;;;;;;;;;;;13.14;49.67;100495.91;5052213;28;20320;-82
2023/12/30 02:51:37;;;;;;;;;;;;;;;13.19;49.62;100504.00;5050484;28;19929;-83
2023/12/30 02:54:02;;;;;;;;;;;;;;;13.22;49.38;100504.25;5050979;28;19924;-82
2023/12/30 02:56:28;;;;;;;;;;;;;;;13.25;49.53;100503.72;5052217;28;20405;-83
2023/12/30 02:58:57;;;;;;;;;;;;;;;13.27;49.62;100508.81;5054768;28;19947;-83
2023/12/30 03:01:23;;;;;;;;;;;;;;;13.26;49.31;100509.91;5049591;28;19928;-83
2023/12/30 03:03:50;;;;;;;;;;;;;;;13.19;49.35;100502.13;5050744;28;19942;-83
2023/12/30 03:06:15;;;;;;;;;;;;;;;13.11;49.40;100509.91;5051488;28;19924;-83
2023/12/30 03:08:40;;;;;;;;;;;;;;;13.11;49.67;100518.78;5050054;28;19921;-83
2023/12/30 03:11:07;;;;;;;;;;;;;;;13.09;49.69;100514.72;5050948;28;19917;-83
2023/12/30 03:13:32;;;;;;;;;;;;;;;13.04;49.57;100512.84;5051881;28;19924;-83
2023/12/30 03:15:58;;;;;;;;;;;;;;;13.02;49.65;100510.44;5050412;28;19916;-83
2023/12/30 03:18:23;;;;;;;;;;;;;;;13.05;49.96;100508.28;5052623;28;20011;-83
2023/12/30 03:20:48;;;;;;;;;;;;;;;13.07;49.90;100509.63;5051625;28;20053;-83
2023/12/30 03:23:13;;;;;;;;;;;;;;;13.13;49.67;100510.44;5049677;28;20319;-82
2023/12/30 03:25:39;;;;;;;;;;;;;;;13.12;49.81;100511.53;5051465;28;19924;-83
2023/12/30 03:28:04;;;;;;;;;;;;;;;13.05;50.10;100506.41;5053788;28;20567;-83
2023/12/30 03:30:29;;;;;;;;;;;;;;;13.04;50.03;100495.91;5050889;28;19916;-84
2023/12/30 03:32:54;;;;;;;;;;;;;;;13.06;49.86;100499.94;5050026;28;19928;-83
2023/12/30 03:35:20;;;;;;;;;;;;;;;13.04;49.93;100499.41;5049879;28;20440;-83
2023/12/30 03:37:45;;;;;;;;;;;;;;;13.03;50.06;100503.16;5052080;28;19924;-84
2023/12/30 03:40:10;;;;;;;;;;;;;;;13.06;49.97;100496.44;5053067;28;19924;-83
2023/12/30 03:42:36;;;;;;;;;;;;;;;13.08;50.10;100499.66;5053132;28;20471;-83
2023/12/30 03:45:01;;;;;;;;;;;;;;;13.09;49.73;100499.38;5052753;28;19930;-83
2023/12/30 03:47:26;;;;;;;;;;;;;;;13.06;49.71;100488.38;5047499;28;19932;-83
2023/12/30 03:49:52;;;;;;;;;;;;;;;13.00;50.18;100488.38;5051452;28;20209;-83
2023/12/30 03:52:17;;;;;;;;;;;;;;;13.05;49.97;100492.94;5050758;28;19929;-84
2023/12/30 03:54:42;;;;;;;;;;;;;;;13.09;49.93;100482.44;5052316;28;20480;-84
2023/12/30 03:57:08;;;;;;;;;;;;;;;13.11;49.84;100488.38;5050503;28;19931;-84
2023/12/30 03:59:33;;;;;;;;;;;;;;;13.10;49.59;100502.88;5049886;28;19932;-84
2023/12/30 04:01:58;;;;;;;;;;;;;;;13.07;49.88;100492.69;5051345;28;19925;-83
2023/12/30 04:04:23;;;;;;;;;;;;;;;13.06;49.55;100493.75;5049889;28;20531;-84
2023/12/30 04:06:49;;;;;;;;;;;;;;;13.07;49.61;100487.28;5051951;28;19925;-83
2023/12/30 04:09:14;;;;;;;;;;;;;;;13.07;49.81;100492.69;5049799;28;19924;-84
2023/12/30 04:11:39;;;;;;;;;;;;;;;13.10;49.86;100497.50;5051352;28;19925;-83
2023/12/30 04:14:04;;;;;;;;;;;;;;;13.09;49.63;100506.66;5050192;28;20892;-83
2023/12/30 04:16:30;;;;;;;;;;;;;;;13.11;49.41;100515.28;5050376;28;19917;-83
2023/12/30 04:18:55;;;;;;;;;;;;;;;13.09;49.65;100514.72;5051144;28;20379;-83
2023/12/30 04:21:20;;;;;;;;;;;;;;;13.09;49.43;100517.41;5049760;28;20541;-84
2023/12/30 04:23:46;;;;;;;;;;;;;;;13.08;49.54;100518.50;5051319;28;19979;-83
2023/12/30 04:26:11;;;;;;;;;;;;;;;13.10;49.60;100527.09;5050363;28;19933;-83
2023/12/30 04:28:36;;;;;;;;;;;;;;;13.05;49.44;100530.59;5050374;28;19963;-83
2023/12/30 04:31:01;;;;;;;;;;;;;;;13.04;49.53;100520.91;5051061;28;19925;-83
2023/12/30 04:33:27;;;;;;;;;;;;;;;13.06;49.50;100524.16;5050317;28;19921;-83
2023/12/30 04:35:52;;;;;;;;;;;;;;;12.99;49.48;100524.44;5049363;28;19925;-84
2023/12/30 04:38:18;;;;;;;;;;;;;;;12.91;49.63;100524.94;5050241;28;19981;-83
2023/12/30 04:40:43;;;;;;;;;;;;;;;12.89;50.01;100518.22;5049884;28;19924;-83
2023/12/30 04:43:08;;;;;;;;;;;;;;;12.88;49.54;100517.41;5049708;28;19944;-84
2023/12/30 04:45:34;;;;;;;;;;;;;;;12.92;49.54;100510.44;5053430;28;19974;-82
2023/12/30 04:47:59;;;;;;;;;;;;;;;12.89;49.56;100527.09;5048300;28;20007;-83
2023/12/30 04:50:25;;;;;;;;;;;;;;;12.89;49.49;100534.34;5051125;28;19917;-83
2023/12/30 04:52:51;;;;;;;;;;;;;;;12.93;49.45;100538.16;5048897;28;20388;-83
2023/12/30 04:55:16;;;;;;;;;;;;;;;12.93;49.44;100530.88;5049078;28;19977;-83
2023/12/30 04:57:44;;;;;;;;;;;;;;;12.94;49.23;100543.25;5050243;28;19959;-84
2023/12/30 05:00:09;;;;;;;;;;;;;;;12.95;49.31;100544.06;5049591;28;20007;-83
2023/12/30 05:02:35;;;;;;;;;;;;;;;12.98;49.02;100538.16;5049369;28;20354;-83
2023/12/30 05:05:00;;;;;;;;;;;;;;;12.98;48.82;100547.03;5051472;28;19932;-83
2023/12/30 05:07:25;;;;;;;;;;;;;;;12.96;48.88;100549.16;5049823;28;19931;-83
2023/12/30 05:09:50;;;;;;;;;;;;;;;12.95;49.00;100560.19;5049680;28;20425;-83
2023/12/30 05:12:15;;;;;;;;;;;;;;;12.97;48.97;100555.34;5049108;28;19936;-83
2023/12/30 05:14:41;;;;;;;;;;;;;;;12.98;48.86;100560.47;5050138;28;19985;-83
2023/12/30 05:17:06;;;;;;;;;;;;;;;12.96;48.78;100557.25;5050862;28;19982;-84
2023/12/30 05:19:31;;;;;;;;;;;;;;;12.99;48.83;100575.53;5051042;28;20384;-83
2023/12/30 05:21:57;;;;;;;;;;;;;;;13.00;48.77;100561.00;5050503;28;19956;-84
2023/12/30 05:24:22;;;;;;;;;;;;;;;12.94;48.77;100578.22;5051725;28;20385;-83
2023/12/30 05:26:48;;;;;;;;;;;;;;;12.95;48.49;100585.22;5049289;28;19975;-83
2023/12/30 05:29:14;;;;;;;;;;;;;;;12.93;48.66;100584.69;5049243;28;19954;-84
2023/12/30 05:31:39;;;;;;;;;;;;;;;12.89;48.83;100588.13;5052049;28;20393;-83
2023/12/30 05:34:05;;;;;;;;;;;;;;;12.89;48.71;100586.25;5054297;28;20393;-84
2023/12/30 05:36:30;;;;;;;;;;;;;;;12.86;48.51;100584.09;5054672;28;19932;-83
2023/12/30 05:38:56;;;;;;;;;;;;;;;12.87;48.82;100583.03;5054782;28;19924;-83
2023/12/30 05:41:21;;;;;;;;;;;;;;;12.94;48.62;100591.66;5053707;28;19924;-84
2023/12/30 05:43:46;;;;;;;;;;;;;;;12.96;48.44;100591.41;5053522;28;20385;-84
2023/12/30 05:46:15;;;;;;;;;;;;;;;12.97;48.29;100599.19;5054011;28;19924;-84
2023/12/30 05:48:41;;;;;;;;;;;;;;;12.94;47.81;100599.72;5054747;28;19931;-84
2023/12/30 05:51:06;;;;;;;;;;;;;;;12.91;47.82;100592.16;5052997;28;19960;-84
2023/12/30 05:53:32;;;;;;;;;;;;;;;12.83;47.04;100594.59;5054229;28;19928;-83
2023/12/30 05:55:57;;;;;;;;;;;;;;;12.84;47.42;100597.00;5053817;28;19924;-84
2023/12/30 05:58:23;;;;;;;;;;;;;;;12.83;46.81;100608.03;5052943;28;19979;-84
2023/12/30 06:00:48;;;;;;;;;;;;;;;12.84;46.87;100606.97;5053583;28;19924;-82
2023/12/30 06:03:13;;;;;;;;;;;;;;;12.79;46.65;100606.97;5052468;28;19975;-83
2023/12/30 06:05:38;;;;;;;;;;;;;;;12.79;46.89;100615.84;5053199;28;19920;-84
2023/12/30 06:08:04;;;;;;;;;;;;;;;12.77;47.03;100623.34;5052145;28;19924;-84
2023/12/30 06:10:29;;;;;;;;;;;;;;;12.75;46.92;100636.25;5054106;28;19932;-84
2023/12/30 06:12:55;;;;;;;;;;;;;;;12.75;46.81;100633.56;5052450;28;19928;-84
2023/12/30 06:15:20;;;;;;;;;;;;;;;12.81;47.13;100634.38;5052013;28;19925;-83
2023/12/30 06:17:45;;;;;;;;;;;;;;;12.79;47.16;100642.72;5050266;28;20514;-83
2023/12/30 06:20:11;;;;;;;;;;;;;;;12.77;46.97;100642.19;5052764;28;19954;-84
2023/12/30 06:22:36;;;;;;;;;;;;;;;12.74;47.06;100644.56;5053072;28;20533;-84
2023/12/30 06:25:03;;;;;;;;;;;;;;;12.74;47.24;100650.75;5051872;28;19931;-84
2023/12/30 06:27:28;;;;;;;;;;;;;;;12.76;46.95;100648.63;5051490;28;20820;-84
2023/12/30 06:29:54;;;;;;;;;;;;;;;12.75;46.72;100655.09;5053233;28;19924;-83
2023/12/30 06:32:19;;;;;;;;;;;;;;;12.71;46.45;100657.47;5052492;28;19942;-83
2023/12/30 06:34:44;;;;;;;;;;;;;;;12.72;46.67;100669.03;5052608;28;20031;-84
2023/12/30 06:37:09;;;;;;;;;;;;;;;12.74;46.57;100666.88;5051025;28;21258;-84
2023/12/30 06:39:35;;;;;;;;;;;;;;;12.73;46.58;100681.41;5052789;28;20936;-83
2023/12/30 06:42:00;;;;;;;;;;;;;;;12.70;46.32;100682.72;5052426;28;19925;-83
2023/12/30 06:44:25;;;;;;;;;;;;;;;12.70;46.85;100687.31;5050904;28;20632;-83
2023/12/30 06:46:51;;;;;;;;;;;;;;;12.70;46.44;100685.41;5051866;28;19962;-84
2023/12/30 06:49:16;;;;;;;;;;;;;;;12.68;46.46;100687.56;5049277;28;19968;-84
2023/12/30 06:51:42;;;;;;;;;;;;;;;12.66;46.79;100696.97;5052955;28;19975;-83
2023/12/30 06:54:07;;;;;;;;;;;;;;;12.65;46.54;100706.91;5053522;28;19931;-84
2023/12/30 06:56:33;;;;;;;;;;;;;;;12.65;46.32;100719.53;5052625;28;19912;-84
2023/12/30 06:58:58;;;;;;;;;;;;;;;12.68;46.54;100710.94;5053101;28;20537;-84
2023/12/30 07:01:25;;;;;;;;;;;;;;;12.70;46.46;100719.56;5053775;28;19920;-86
2023/12/30 07:03:50;;;;;;;;;;;;;;;12.62;46.35;100715.50;5052726;28;19924;-83
2023/12/30 07:06:15;;;;;;;;;;;;;;;12.62;46.46;100715.50;5051086;28;19924;-83
2023/12/30 07:08:41;;;;;;;;;;;;;;;12.62;46.43;100717.38;5051466;28;19932;-83
2023/12/30 07:11:06;;;;;;;;;;;;;;;12.61;46.58;100723.84;5050575;28;20285;-83
2023/12/30 07:13:31;;;;;;;;;;;;;;;12.66;46.36;100721.16;5052772;28;19924;-83
2023/12/30 07:15:57;;;;;;;;;;;;;;;12.69;46.27;100726.00;5051854;28;19928;-84
2023/12/30 07:18:22;;;;;;;;;;;;;;;12.63;46.47;100740.50;5052475;28;19931;-84
2023/12/30 07:20:47;;;;;;;;;;;;;;;12.56;46.24;100731.84;5051080;28;19932;-84
2023/12/30 07:23:13;;;;;;;;;;;;;;;12.54;46.13;100753.63;5052356;28;19952;-84
2023/12/30 07:25:40;;;;;;;;;;;;;;;12.52;46.27;100745.00;5051446;28;19925;-83
2023/12/30 07:28:05;;;;;;;;;;;;;;;12.57;46.20;100758.50;5050608;28;19925;-84
2023/12/30 07:30:30;;;;;;;;;;;;;;;12.55;46.33;100765.19;5050835;28;19924;-83
2023/12/30 07:32:56;;;;;;;;;;;;;;;12.52;45.92;100763.00;5051786;28;19944;-84
2023/12/30 07:35:22;;;;;;;;;;;;;;;12.48;46.14;100764.59;5051548;28;19924;-84
2023/12/30 07:37:48;;;;;;;;;;;;;;;12.52;46.16;100784.50;5053501;28;19924;-83
2023/12/30 07:40:13;;;;;;;;;;;;;;;12.54;46.27;100782.38;5052390;28;19916;-83
2023/12/30 07:42:39;;;;;;;;;;;;;;;12.55;46.29;100789.38;5052099;28;20039;-84
2023/12/30 07:45:06;;;;;;;;;;;;;;;12.55;46.33;100787.47;5049677;28;20572;-84
2023/12/30 07:47:32;;;;;;;;;;;;;;;12.59;46.36;100803.94;5052324;28;19956;-83
2023/12/30 07:49:57;;;;;;;;;;;;;;;12.64;46.35;100803.94;5052064;28;20007;-84
2023/12/30 07:52:22;;;;;;;;;;;;;;;12.68;46.23;100813.09;5050973;28;19974;-84
2023/12/30 07:54:47;;;;;;;;;;;;;;;12.70;46.33;100806.38;5052076;28;19956;-84
2023/12/30 07:57:13;;;;;;;;;;;;;;;12.71;46.15;100816.06;5051402;28;19916;-84
2023/12/30 07:59:39;;;;;;;;;;;;;;;12.76;46.09;100814.50;5047906;28;19924;-84
2023/12/30 08:02:04;;;;;;;;;;;;;;;12.76;45.93;100825.25;5050456;28;19924;-85
2023/12/30 08:04:30;;;;;;;;;;;;;;;12.75;46.15;100819.06;5051074;28;19932;-83
2023/12/30 08:06:55;;;;;;;;;;;;;;;12.78;46.23;100818.56;5049288;28;20643;-84
2023/12/30 08:09:22;;;;;;;;;;;;;;;12.76;46.12;100825.25;5049770;28;19924;-83
2023/12/30 08:11:48;;;;;;;;;;;;;;;12.73;46.19;100829.25;5051383;28;19936;-83
2023/12/30 08:14:13;;;;;;;;;;;;;;;12.68;46.30;100829.22;5050457;28;20305;-84
2023/12/30 08:16:38;;;;;;;;;;;;;;;12.66;46.31;100840.25;5049935;28;19931;-85
2023/12/30 08:19:04;;;;;;;;;;;;;;;12.69;46.35;100837.03;5050464;28;20031;-84
2023/12/30 08:21:29;;;;;;;;;;;;;;;12.70;46.03;100844.03;5051882;28;20415;-84
2023/12/30 08:23:56;;;;;;;;;;;;;;;12.66;46.46;100842.13;5050635;28;19925;-84
2023/12/30 08:26:22;;;;;;;;;;;;;;;12.68;46.21;100854.22;5050287;28;19932;-84
2023/12/30 08:28:47;;;;;;;;;;;;;;;12.72;46.16;100851.84;5052018;28;19925;-84
2023/12/30 08:31:12;;;;;;;;;;;;;;;12.74;46.17;100843.50;5050787;28;19924;-83
2023/12/30 08:33:40;;;;;;;;;;;;;;;12.70;46.02;100862.03;5051022;28;20301;-84
2023/12/30 08:36:05;;;;;;;;;;;;;;;12.69;45.86;100846.97;5051064;28;19932;-83
2023/12/30 08:38:31;;;;;;;;;;;;;;;12.68;46.08;100861.50;5050542;28;19935;-83
2023/12/30 08:40:57;;;;;;;;;;;;;;;12.65;46.21;100864.69;5051310;28;19924;-84
2023/12/30 08:43:22;;;;;;;;;;;;;;;12.67;46.30;100881.38;5051028;28;19927;-84
2023/12/30 08:45:48;;;;;;;;;;;;;;;12.69;46.12;100881.94;5045942;28;19931;-84
2023/12/30 08:48:13;;;;;;;;;;;;;;;12.61;46.03;100877.03;5051147;28;20019;-83
2023/12/30 08:50:38;;;;;;;;;;;;;;;12.59;46.29;100873.81;5050536;28;19917;-84
2023/12/30 08:53:03;;;;;;;;;;;;;;;12.63;46.30;100891.03;5053380;28;19928;-84
2023/12/30 08:55:29;;;;;;;;;;;;;;;12.62;46.21;100884.03;5050888;28;19924;-83
2023/12/30 08:57:54;;;;;;;;;;;;;;;12.65;46.40;100886.19;5048244;28;19924;-84
2023/12/30 09:00:19;;;;;;;;;;;;;;;12.70;46.50;100886.22;5052931;28;19939;-84
2023/12/30 09:02:48;;;;;;;;;;;;;;;12.79;46.10;100884.69;5049018;28;19924;-84
2023/12/30 09:05:18;;;;;;;;;;;;;;;12.84;46.08;100887.41;5051757;28;19975;-83
2023/12/30 09:07:43;;;;;;;;;;;;;;;12.86;46.13;100896.03;5048961;28;19978;-84
2023/12/30 09:10:09;;;;;;;;;;;;;;;12.84;46.17;100898.16;5048369;28;19928;-84
2023/12/30 09:12:34;;;;;;;;;;;;;;;12.86;46.08;100896.03;5051148;28;20665;-83
2023/12/30 09:14:59;;;;;;;;;;;;;;;12.79;46.04;100895.44;5049156;28;20324;-84
2023/12/30 09:17:25;;;;;;;;;;;;;;;12.81;46.05;100909.44;5049157;28;19931;-84
2023/12/30 09:19:50;;;;;;;;;;;;;;;12.79;46.01;100887.38;5049610;28;20522;-84
2023/12/30 09:22:16;;;;;;;;;;;;;;;12.80;45.63;100907.00;5049855;28;19925;-83
2023/12/30 09:24:41;;;;;;;;;;;;;;;12.83;46.41;100901.91;5049290;28;19931;-84
2023/12/30 09:27:08;;;;;;;;;;;;;;;12.92;46.13;100905.72;5049811;28;19932;-83
2023/12/30 09:29:33;;;;;;;;;;;;;;;12.97;45.85;100918.41;5048900;28;19925;-84
2023/12/30 09:31:58;;;;;;;;;;;;;;;12.94;45.85;100913.56;5049725;28;20650;-84
2023/12/30 09:34:23;;;;;;;;;;;;;;;12.90;46.00;100915.94;5049518;28;20650;-84
2023/12/30 09:36:49;;;;;;;;;;;;;;;12.94;46.02;100919.75;5049469;28;20046;-84
2023/12/30 09:39:14;;;;;;;;;;;;;;;12.97;45.74;100927.28;5048926;28;19928;-84
2023/12/30 09:41:40;;;;;;;;;;;;;;;12.93;46.03;100922.72;5048588;28;20351;-83
2023/12/30 09:44:06;;;;;;;;;;;;;;;12.96;45.87;100923.00;5050035;28;19924;-84
2023/12/30 09:46:31;;;;;;;;;;;;;;;13.00;45.87;100928.66;5050083;28;19924;-84
2023/12/30 09:48:57;;;;;;;;;;;;;;;12.98;45.66;100938.88;5049296;28;19925;-83
2023/12/30 09:51:22;;;;;;;;;;;;;;;12.99;45.72;100945.88;5049895;28;19921;-84
2023/12/30 09:53:47;;;;;;;;;;;;;;;12.98;45.57;100953.13;5048118;28;20058;-83
2023/12/30 09:56:13;;;;;;;;;;;;;;;13.00;45.66;100956.34;5047672;28;19929;-84
2023/12/30 09:58:39;;;;;;;;;;;;;;;12.95;45.50;100958.22;5049303;28;19951;-84
2023/12/30 10:01:05;;;;;;;;;;;;;;;12.99;45.72;100954.75;5048770;28;20514;-84
2023/12/30 10:03:30;;;;;;;;;;;;;;;13.06;45.51;100961.75;5046783;28;20023;-83
2023/12/30 10:05:58;;;;;;;;;;;;;;;13.11;45.66;100956.44;5047913;28;20391;-83
2023/12/30 10:08:23;;;;;;;;;;;;;;;13.13;45.35;100957.78;5046967;28;20422;-84
2023/12/30 10:10:49;;;;;;;;;;;;;;;13.16;45.42;100962.66;5048477;28;19917;-83
2023/12/30 10:13:17;;;;;;;;;;;;;;;13.23;45.45;100965.13;5048276;28;20015;-84
2023/12/30 10:15:42;;;;;;;;;;;;;;;13.31;45.68;100967.34;5048139;28;19924;-84
2023/12/30 10:18:08;;;;;;;;;;;;;;;13.42;45.27;100971.69;5051267;28;20414;-83
2023/12/30 10:20:37;;;;;;;;;;;;;;;13.43;45.25;100975.19;5051629;28;19925;-84
2023/12/30 10:23:03;;;;;;;;;;;;;;;13.45;45.43;100973.88;5052716;28;19981;-84
2023/12/30 10:25:28;;;;;;;;;;;;;;;13.49;45.30;100980.38;5052529;28;19929;-84
2023/12/30 10:27:54;;;;;;;;;;;;;;;13.52;45.28;100979.03;5051794;28;20028;-84
2023/12/30 10:30:19;;;;;;;;;;;;;;;13.47;45.05;100987.09;5050297;28;19924;-84
2023/12/30 10:32:46;;;;;;;;;;;;;;;13.45;45.36;100990.00;5050862;28;19998;-84
2023/12/30 10:35:12;;;;;;;;;;;;;;;13.45;44.88;100989.19;5052498;28;19925;-84
2023/12/30 10:37:38;;;;;;;;;;;;;;;13.43;44.90;100986.78;5055181;28;19939;-84
2023/12/30 10:40:05;;;;;;;;;;;;;;;13.49;45.21;100990.31;5058015;28;20320;-83
2023/12/30 10:42:30;;;;;;;;;;;;;;;13.47;44.62;100998.66;5058136;28;19981;-84
2023/12/30 10:44:55;;;;;;;;;;;;;;;13.46;45.02;100988.94;5057404;28;20649;-84
2023/12/30 10:47:21;;;;;;;;;;;;;;;13.50;44.95;100998.13;5056953;28;19945;-84
2023/12/30 10:49:51;;;;;;;;;;;;;;;13.70;44.94;101002.81;5055408;28;19927;-84
2023/12/30 10:52:20;;;;;;;;;;;;;;;13.89;44.55;101000.47;5061452;28;19944;-84
2023/12/30 10:54:52;;;;;;;;;;;;;;;14.03;44.10;101003.47;5057184;28;19944;-84
2023/12/30 10:57:19;;;;;;;;;;;;;;;14.15;43.99;101010.25;5060714;28;20376;-83
2023/12/30 10:59:49;;;;;;;;;;;;;;;14.25;43.90;100998.69;5055210;28;19917;-84
2023/12/30 11:02:15;;;;;;;;;;;;;;;14.34;44.07;101013.25;5061875;28;19955;-84
2023/12/30 11:04:41;;;;;;;;;;;;;;;14.49;43.59;101010.63;5061188;28;19963;-84
2023/12/30 11:07:10;;;;;;;;;;;;;;;14.67;43.23;101017.38;5057643;28;19924;-84
2023/12/30 11:09:36;;;;;;;;;;;;;;;14.77;43.29;101016.59;5055291;28;19963;-83
2023/12/30 11:12:02;;;;;;;;;;;;;;;14.86;42.94;101014.16;5059237;28;19960;-83
2023/12/30 11:14:27;;;;;;;;;;;;;;;14.85;43.04;101018.72;5060608;28;19927;-84
2023/12/30 11:16:54;;;;;;;;;;;;;;;14.84;43.05;101019.81;5056714;28;19931;-83
2023/12/30 11:19:29;;;;;;;;;;;;;;;14.75;42.93;101011.47;5058685;28;19940;-84
2023/12/30 11:21:56;;;;;;;;;;;;;;;14.76;43.02;101037.34;5058023;28;20802;-84
2023/12/30 11:24:22;;;;;;;;;;;;;;;14.75;43.02;101024.94;5057052;28;19966;-84
2023/12/30 11:26:48;;;;;;;;;;;;;;;14.75;43.03;101029.53;5058096;28;20511;-84
2023/12/30 11:29:14;;;;;;;;;;;;;;;14.68;42.93;101019.00;5056206;28;19928;-83
2023/12/30 11:31:41;;;;;;;;;;;;;;;14.54;42.82;101020.59;5059064;28;19920;-84
2023/12/30 11:34:06;;;;;;;;;;;;;;;14.43;43.02;101021.63;5068112;28;19916;-84
2023/12/30 11:36:31;;;;;;;;;;;;;;;14.38;43.15;101018.94;5064595;28;19920;-83
2023/12/30 11:38:58;;;;;;;;;;;;;;;14.30;42.91;101016.75;5060383;28;20316;-84
2023/12/30 11:41:27;;;;;;;;;;;;;;;14.26;42.83;101013.78;5064268;28;20035;-83
2023/12/30 11:43:54;;;;;;;;;;;;;;;14.17;42.98;101010.78;5058399;28;20689;-83
2023/12/30 11:46:19;;;;;;;;;;;;;;;14.14;43.41;101011.31;5061847;28;20035;-83
2023/12/30 11:48:44;;;;;;;;;;;;;;;14.17;43.09;101023.44;5057218;28;20032;-84
2023/12/30 11:51:18;;;;;;;;;;;;;;;14.12;43.29;101020.75;5060771;28;19998;-84
2023/12/30 11:53:44;;;;;;;;;;;;;;;14.16;43.19;101011.84;5058126;28;19975;-84
2023/12/30 11:56:09;;;;;;;;;;;;;;;14.18;43.20;101014.28;5058950;28;19920;-84
2023/12/30 11:58:34;;;;;;;;;;;;;;;14.22;43.48;101007.31;5057009;28;19928;-84
2023/12/30 12:01:00;;;;;;;;;;;;;;;14.27;43.06;101006.50;5059741;28;19924;-84
2023/12/30 12:03:25;;;;;;;;;;;;;;;14.35;42.90;101006.78;5059323;28;20688;-84
2023/12/30 12:05:50;;;;;;;;;;;;;;;14.29;42.80;101007.03;5055490;28;19928;-84
2023/12/30 12:08:16;;;;;;;;;;;;;;;14.21;42.80;101017.28;5058507;28;20576;-84
2023/12/30 12:10:41;;;;;;;;;;;;;;;14.16;42.32;101011.84;5054306;28;19935;-85
2023/12/30 12:13:09;;;;;;;;;;;;;;;14.24;43.19;101009.75;5059077;28;20064;-84
2023/12/30 12:15:34;;;;;;;;;;;;;;;14.13;42.48;101009.69;5056389;28;19963;-85
2023/12/30 12:18:00;;;;;;;;;;;;;;;14.16;42.68;101014.53;5060362;28;19970;-84
2023/12/30 12:20:26;;;;;;;;;;;;;;;14.14;42.81;101014.00;5064770;28;19924;-84
2023/12/30 12:22:54;;;;;;;;;;;;;;;14.10;42.80;101022.91;5059606;28;19928;-84
2023/12/30 12:25:20;;;;;;;;;;;;;;;14.11;42.83;101028.00;5057730;28;19974;-84
2023/12/30 12:27:48;;;;;;;;;;;;;;;14.10;42.57;101012.91;5053919;28;19924;-84